Time;durP1;ratioP1;P1;durP2;ratioP2;P2;SDS_P1;SDS_P2;PMS_P1;PMS_P2;Temp;Humidity;BMP_temperature;BMP_pressure;BME280_temperature;BME280_humidity;BME280_pressure;Samples;Min_cycle;Max_cycle;Signal;HPM_P1;HPM_P2
2022/03/01 00:01:41;;;;;;;;;;;;;;;5.78;50.18;102743.28;4995558;28;20282;-68
2022/03/01 00:04:08;;;;;;;;;;;;;;;5.74;50.36;102745.63;4995454;28;19917;-68
2022/03/01 00:06:33;;;;;;;;;;;;;;;5.76;49.14;102737.03;4995382;28;20356;-68
2022/03/01 00:08:58;;;;;;;;;;;;;;;5.83;49.65;102738.31;4995361;28;19959;-68
2022/03/01 00:11:24;;;;;;;;;;;;;;;5.89;49.20;102743.94;4995387;28;19937;-68
2022/03/01 00:13:49;;;;;;;;;;;;;;;5.85;48.87;102746.28;4995303;28;20283;-68
2022/03/01 00:16:15;;;;;;;;;;;;;;;5.86;49.78;102746.34;4995167;28;19917;-67
2022/03/01 00:18:40;;;;;;;;;;;;;;;5.94;49.52;102744.22;4995111;28;19964;-67
2022/03/01 00:21:05;;;;;;;;;;;;;;;5.89;49.36;102743.94;4993815;28;20016;-68
2022/03/01 00:23:32;;;;;;;;;;;;;;;5.79;50.37;102744.19;4995088;28;19917;-68
2022/03/01 00:25:57;;;;;;;;;;;;;;;5.62;49.97;102737.03;4994884;28;19920;-68
2022/03/01 00:28:23;;;;;;;;;;;;;;;5.62;49.95;102737.91;4995218;28;19914;-68
2022/03/01 00:30:48;;;;;;;;;;;;;;;5.74;49.24;102745.63;4994854;28;19921;-68
2022/03/01 00:33:13;;;;;;;;;;;;;;;5.82;49.84;102744.34;4994767;28;20333;-68
2022/03/01 00:35:39;;;;;;;;;;;;;;;5.88;49.43;102747.38;4994865;28;20279;-67
2022/03/01 00:38:04;;;;;;;;;;;;;;;5.92;49.73;102740.63;4994888;28;20387;-68
2022/03/01 00:40:29;;;;;;;;;;;;;;;5.96;49.13;102734.75;4994726;28;19913;-68
2022/03/01 00:42:55;;;;;;;;;;;;;;;5.92;48.73;102751.13;4994724;28;20436;-68
2022/03/01 00:45:20;;;;;;;;;;;;;;;5.86;49.19;102743.72;4993342;28;20347;-68
2022/03/01 00:47:45;;;;;;;;;;;;;;;5.82;49.96;102743.44;4994328;28;19914;-68
2022/03/01 00:50:11;;;;;;;;;;;;;;;5.66;49.71;102737.28;4994613;28;19918;-67
2022/03/01 00:52:37;;;;;;;;;;;;;;;5.66;49.79;102741.66;4994515;28;19913;-67
2022/03/01 00:55:03;;;;;;;;;;;;;;;5.53;50.35;102738.25;5000784;28;20282;-68
2022/03/01 00:57:28;;;;;;;;;;;;;;;5.55;51.11;102740.06;4996453;28;19913;-68
2022/03/01 00:59:53;;;;;;;;;;;;;;;5.48;50.63;102730.91;5014040;28;19921;-68
2022/03/01 01:02:19;;;;;;;;;;;;;;;5.44;50.18;102739.41;5013898;28;19921;-69
2022/03/01 01:04:44;;;;;;;;;;;;;;;5.40;51.66;102735.69;5013921;28;20363;-68
2022/03/01 01:07:09;;;;;;;;;;;;;;;5.36;50.98;102744.19;5013963;28;19914;-68
2022/03/01 01:09:35;;;;;;;;;;;;;;;5.42;50.48;102741.03;5014127;28;19917;-68
2022/03/01 01:12:00;;;;;;;;;;;;;;;5.54;51.41;102736.53;5013876;28;20428;-68
2022/03/01 01:14:25;;;;;;;;;;;;;;;5.51;49.23;102736.34;5013838;28;19920;-68
2022/03/01 01:16:51;;;;;;;;;;;;;;;5.53;49.41;102740.88;5013915;28;20321;-68
2022/03/01 01:19:17;;;;;;;;;;;;;;;5.58;50.26;102737.66;5013618;28;20367;-68
2022/03/01 01:24:28;;;;;;;;;;;;;;;5.53;50.08;102748.75;5013928;28;19963;-67
2022/03/01 01:26:53;;;;;;;;;;;;;;;5.31;50.92;102736.81;5013797;28;19952;-68
2022/03/01 01:29:18;;;;;;;;;;;;;;;5.16;50.64;102737.69;5013810;28;20004;-68
2022/03/01 01:31:44;;;;;;;;;;;;;;;5.24;51.11;102739.06;5013562;28;20255;-68
2022/03/01 01:34:09;;;;;;;;;;;;;;;5.31;50.94;102734.19;5013714;28;19917;-68
2022/03/01 01:36:34;;;;;;;;;;;;;;;5.37;51.06;102735.50;5013612;28;19918;-68
2022/03/01 01:39:00;;;;;;;;;;;;;;;5.22;51.98;102740.69;5017210;28;19913;-68
2022/03/01 01:41:25;;;;;;;;;;;;;;;5.17;50.61;102736.88;5017690;28;20032;-68
2022/03/01 01:43:51;;;;;;;;;;;;;;;5.13;51.62;102741.81;5017715;28;19957;-68
2022/03/01 01:46:16;;;;;;;;;;;;;;;5.18;50.28;102740.38;5017179;28;19941;-68
2022/03/01 01:48:41;;;;;;;;;;;;;;;5.24;52.06;102733.81;5016889;28;19913;-68
2022/03/01 01:51:07;;;;;;;;;;;;;;;5.22;51.28;102735.47;5017511;28;20385;-68
2022/03/01 01:53:32;;;;;;;;;;;;;;;5.26;50.84;102733.91;5017561;28;19919;-68
2022/03/01 01:55:57;;;;;;;;;;;;;;;5.34;50.58;102726.53;5017137;28;19996;-67
2022/03/01 01:58:23;;;;;;;;;;;;;;;5.30;51.44;102733.28;5017345;28;19920;-68
2022/03/01 02:00:48;;;;;;;;;;;;;;;5.12;51.48;102729.53;5017325;28;20332;-68
2022/03/01 02:03:15;;;;;;;;;;;;;;;5.05;52.77;102730.84;5017222;28;20320;-68
2022/03/01 02:05:40;;;;;;;;;;;;;;;5.00;52.53;102737.50;5017261;28;20008;-68
2022/03/01 02:08:05;;;;;;;;;;;;;;;5.02;52.37;102730.66;5017227;28;20000;-68
2022/03/01 02:10:31;;;;;;;;;;;;;;;5.15;51.63;102732.34;5017201;28;19914;-68
2022/03/01 02:12:56;;;;;;;;;;;;;;;5.19;50.37;102719.53;5017332;28;19913;-68
2022/03/01 02:15:23;;;;;;;;;;;;;;;5.32;50.65;102725.56;5017091;28;20012;-67
2022/03/01 02:17:48;;;;;;;;;;;;;;;5.36;50.48;102724.94;5016927;28;20362;-67
2022/03/01 02:20:21;;;;;;;;;;;;;;;5.34;51.46;102727.44;5016900;28;20003;-68
2022/03/01 02:22:51;;;;;;;;;;;;;;;5.34;51.16;102727.44;5016962;28;20289;-67
2022/03/01 02:25:18;;;;;;;;;;;;;;;5.23;50.85;102726.78;5016852;28;19928;-67
2022/03/01 02:27:43;;;;;;;;;;;;;;;5.15;51.60;102732.34;5016799;28;19960;-68
2022/03/01 02:30:09;;;;;;;;;;;;;;;5.06;51.80;102727.44;5016761;28;19913;-68
2022/03/01 02:32:35;;;;;;;;;;;;;;;4.97;51.64;102732.09;5016738;28;19923;-68
2022/03/01 02:35:00;;;;;;;;;;;;;;;4.93;50.90;102723.13;5016625;28;19913;-68
2022/03/01 02:37:26;;;;;;;;;;;;;;;4.93;52.64;102731.00;5016592;28;19952;-68
2022/03/01 02:39:53;;;;;;;;;;;;;;;4.83;51.66;102733.81;5016545;28;19913;-68
2022/03/01 02:42:18;;;;;;;;;;;;;;;4.73;52.43;102729.69;5016558;28;19913;-68
2022/03/01 02:44:44;;;;;;;;;;;;;;;4.67;52.69;102731.03;5016468;28;20358;-68
2022/03/01 02:47:09;;;;;;;;;;;;;;;4.68;51.87;102732.84;5016662;28;19940;-68
2022/03/01 02:49:35;;;;;;;;;;;;;;;4.73;51.64;102721.84;5016198;28;19944;-68
2022/03/01 02:52:01;;;;;;;;;;;;;;;4.83;51.38;102723.34;5016433;28;19913;-67
2022/03/01 02:54:26;;;;;;;;;;;;;;;4.97;50.76;102719.00;5016066;28;20271;-67
2022/03/01 02:56:51;;;;;;;;;;;;;;;5.01;51.79;102715.72;5016386;28;19928;-67
2022/03/01 02:59:17;;;;;;;;;;;;;;;4.91;51.91;102711.63;5016373;28;19913;-67
2022/03/01 03:01:42;;;;;;;;;;;;;;;4.83;52.35;102712.84;5016328;28;19920;-67
2022/03/01 03:04:08;;;;;;;;;;;;;;;4.86;50.63;102699.06;5016339;28;19913;-68
2022/03/01 03:06:33;;;;;;;;;;;;;;;4.83;51.24;102701.47;4998572;28;20436;-68
2022/03/01 03:08:59;;;;;;;;;;;;;;;4.83;51.23;102697.16;5016095;28;19913;-68
2022/03/01 03:11:24;;;;;;;;;;;;;;;4.85;52.04;102700.78;5016035;28;19917;-68
2022/03/01 03:13:50;;;;;;;;;;;;;;;4.85;51.52;102710.34;4998454;28;19913;-68
2022/03/01 03:16:16;;;;;;;;;;;;;;;4.82;52.94;102707.53;5015839;28;20381;-68
2022/03/01 03:18:41;;;;;;;;;;;;;;;4.62;52.11;102701.00;5015837;28;19960;-68
2022/03/01 03:21:07;;;;;;;;;;;;;;;4.58;53.26;102705.13;5015756;28;19917;-68
2022/03/01 03:23:33;;;;;;;;;;;;;;;4.59;52.02;102700.81;5015886;28;19920;-68
2022/03/01 03:25:58;;;;;;;;;;;;;;;4.52;53.45;102699.50;5015713;28;19920;-68
2022/03/01 03:28:24;;;;;;;;;;;;;;;4.55;52.27;102707.56;5015748;28;19913;-68
2022/03/01 03:30:49;;;;;;;;;;;;;;;4.58;52.41;102706.84;5015674;28;19913;-68
2022/03/01 03:33:15;;;;;;;;;;;;;;;4.60;53.35;102710.50;5015567;28;20012;-68
2022/03/01 03:35:40;;;;;;;;;;;;;;;4.65;52.12;102702.13;5015446;28;19996;-68
2022/03/01 03:38:06;;;;;;;;;;;;;;;4.68;52.54;102699.69;5015654;28;19976;-68
2022/03/01 03:40:31;;;;;;;;;;;;;;;4.73;52.56;102702.63;5015511;28;19972;-67
2022/03/01 03:42:56;;;;;;;;;;;;;;;4.77;51.93;102704.63;5015485;28;19955;-68
2022/03/01 03:45:23;;;;;;;;;;;;;;;4.80;52.30;102701.28;5015430;28;19956;-67
2022/03/01 03:47:53;;;;;;;;;;;;;;;4.77;53.11;102704.63;5015316;28;20350;-67
2022/03/01 03:50:19;;;;;;;;;;;;;;;4.78;52.18;102709.03;5015225;28;20055;-68
2022/03/01 03:52:44;;;;;;;;;;;;;;;4.77;51.92;102707.25;5015141;28;19959;-68
2022/03/01 03:55:10;;;;;;;;;;;;;;;4.76;52.39;102703.72;5015046;28;19921;-68
2022/03/01 03:57:36;;;;;;;;;;;;;;;4.74;52.20;102691.31;5015207;28;20281;-68
2022/03/01 04:00:03;;;;;;;;;;;;;;;4.69;51.78;102703.22;5014599;28;19920;-67
2022/03/01 04:02:29;;;;;;;;;;;;;;;4.68;52.61;102702.31;5015057;28;20389;-68
2022/03/01 04:04:54;;;;;;;;;;;;;;;4.67;52.07;102703.13;5015065;28;19917;-68
2022/03/01 04:07:19;;;;;;;;;;;;;;;4.74;52.71;102702.69;5014867;28;19913;-67
2022/03/01 04:09:45;;;;;;;;;;;;;;;4.76;52.26;102700.19;5015249;28;19921;-68
2022/03/01 04:12:10;;;;;;;;;;;;;;;4.78;51.27;102698.56;5014944;28;19940;-68
2022/03/01 04:14:35;;;;;;;;;;;;;;;4.75;52.27;102699.31;5014862;28;20263;-68
2022/03/01 04:17:01;;;;;;;;;;;;;;;4.77;52.96;102700.28;5014786;28;20354;-67
2022/03/01 04:19:26;;;;;;;;;;;;;;;4.81;52.64;102704.00;4997039;28;19948;-67
2022/03/01 04:21:52;;;;;;;;;;;;;;;4.77;52.04;102696.75;5014640;28;19913;-68
2022/03/01 04:24:17;;;;;;;;;;;;;;;4.73;52.72;102694.75;5014642;28;20343;-68
2022/03/01 04:26:43;;;;;;;;;;;;;;;4.70;51.79;102707.63;5014704;28;19920;-68
2022/03/01 04:29:09;;;;;;;;;;;;;;;4.72;52.08;102706.03;5014770;28;19914;-68
2022/03/01 04:31:34;;;;;;;;;;;;;;;4.80;51.58;102709.13;5014538;28;20015;-68
2022/03/01 04:33:59;;;;;;;;;;;;;;;4.85;52.01;102707.75;5014644;28;19948;-68
2022/03/01 04:36:25;;;;;;;;;;;;;;;4.89;52.11;102715.88;5014472;28;20286;-68
2022/03/01 04:38:51;;;;;;;;;;;;;;;4.91;51.98;102711.63;5014295;28;19913;-68
2022/03/01 04:41:17;;;;;;;;;;;;;;;4.91;52.14;102714.25;5014530;28;19913;-67
2022/03/01 04:43:42;;;;;;;;;;;;;;;4.87;51.72;102708.72;5014468;28;19910;-67
2022/03/01 04:46:07;;;;;;;;;;;;;;;4.85;52.56;102707.75;5014563;28;19920;-68
2022/03/01 04:48:33;;;;;;;;;;;;;;;4.87;51.85;102709.63;5014300;28;20360;-67
2022/03/01 04:51:04;;;;;;;;;;;;;;;4.94;51.53;102710.94;5014317;28;19920;-68
2022/03/01 04:53:29;;;;;;;;;;;;;;;4.94;51.55;102698.75;5014146;28;19920;-68
2022/03/01 04:55:55;;;;;;;;;;;;;;;4.89;53.19;102707.13;5013965;28;19917;-67
2022/03/01 04:58:20;;;;;;;;;;;;;;;4.73;53.53;102707.84;5014171;28;19913;-68
2022/03/01 05:00:45;;;;;;;;;;;;;;;4.60;53.44;102703.53;5014137;28;20258;-67
2022/03/01 05:03:11;;;;;;;;;;;;;;;4.61;53.12;102701.81;5014038;28;20378;-68
2022/03/01 05:05:36;;;;;;;;;;;;;;;4.64;52.78;102694.16;5013902;28;19917;-68
2022/03/01 05:08:02;;;;;;;;;;;;;;;4.66;52.92;102696.06;5014217;28;19958;-67
2022/03/01 05:10:28;;;;;;;;;;;;;;;4.70;53.21;102692.84;5013809;28;19913;-67
2022/03/01 05:12:55;;;;;;;;;;;;;;;4.77;52.88;102691.53;5013167;28;20382;-68
2022/03/01 05:15:25;;;;;;;;;;;;;;;4.64;52.76;102697.69;5013906;28;20015;-68
2022/03/01 05:17:50;;;;;;;;;;;;;;;4.58;52.40;102694.66;5014068;28;19936;-68
2022/03/01 05:20:16;;;;;;;;;;;;;;;4.65;52.37;102693.34;5013853;28;20297;-68
2022/03/01 05:22:42;;;;;;;;;;;;;;;4.70;52.28;102695.44;5013832;28;19913;-68
2022/03/01 05:25:11;;;;;;;;;;;;;;;4.74;52.29;102689.59;5013729;28;19924;-68
2022/03/01 05:27:37;;;;;;;;;;;;;;;4.75;52.47;102693.13;5013747;28;19913;-67
2022/03/01 05:30:03;;;;;;;;;;;;;;;4.78;52.19;102691.63;5013740;28;20003;-68
2022/03/01 05:32:29;;;;;;;;;;;;;;;4.84;52.72;102685.88;5014031;28;19960;-68
2022/03/01 05:34:54;;;;;;;;;;;;;;;4.89;51.75;102689.69;5013671;28;19913;-68
2022/03/01 05:37:19;;;;;;;;;;;;;;;4.95;52.84;102673.44;5013604;28;19957;-68
2022/03/01 05:39:45;;;;;;;;;;;;;;;4.97;53.58;102670.13;5013936;28;19917;-68
2022/03/01 05:42:10;;;;;;;;;;;;;;;4.95;53.62;102673.44;5013580;28;19922;-68
2022/03/01 05:44:38;;;;;;;;;;;;;;;4.90;53.19;102672.25;5013586;28;19920;-68
2022/03/01 05:47:03;;;;;;;;;;;;;;;4.90;52.65;102661.78;5013478;28;19921;-69
2022/03/01 05:49:29;;;;;;;;;;;;;;;4.88;53.28;102673.84;5013484;28;19909;-68
2022/03/01 05:51:54;;;;;;;;;;;;;;;4.75;51.93;102669.56;5013579;28;19913;-68
2022/03/01 05:54:19;;;;;;;;;;;;;;;4.65;54.46;102668.06;5013241;28;19909;-68
2022/03/01 05:56:44;;;;;;;;;;;;;;;4.59;53.66;102670.31;5013273;28;19963;-68
2022/03/01 05:59:10;;;;;;;;;;;;;;;4.55;53.42;102660.44;5013325;28;19924;-68
2022/03/01 06:01:35;;;;;;;;;;;;;;;4.56;53.60;102663.97;5013471;28;19917;-68
2022/03/01 06:04:01;;;;;;;;;;;;;;;4.54;53.78;102676.97;5013421;28;19955;-68
2022/03/01 06:06:26;;;;;;;;;;;;;;;4.46;54.42;102671.22;5013331;28;19913;-69
2022/03/01 06:08:51;;;;;;;;;;;;;;;4.36;53.01;102665.28;5013351;28;19983;-68
2022/03/01 06:11:16;;;;;;;;;;;;;;;4.36;54.96;102662.66;5013176;28;20373;-68
2022/03/01 06:13:43;;;;;;;;;;;;;;;4.30;55.29;102671.03;5013356;28;19917;-68
2022/03/01 06:16:09;;;;;;;;;;;;;;;4.23;54.07;102658.34;5013086;28;19917;-68
2022/03/01 06:18:34;;;;;;;;;;;;;;;4.25;54.11;102665.50;5012510;28;20381;-68
2022/03/01 06:21:01;;;;;;;;;;;;;;;4.28;54.87;102670.00;4994664;28;19914;-68
2022/03/01 06:23:27;;;;;;;;;;;;;;;4.23;53.12;102671.44;5013325;28;20362;-68
2022/03/01 06:25:58;;;;;;;;;;;;;;;4.24;54.54;102673.28;5015863;28;19920;-69
2022/03/01 06:28:23;;;;;;;;;;;;;;;4.24;53.26;102670.66;5016219;28;19936;-68
2022/03/01 06:30:49;;;;;;;;;;;;;;;4.34;53.41;102678.28;5015955;28;19909;-69
2022/03/01 06:33:17;;;;;;;;;;;;;;;4.36;52.71;102675.75;5016223;28;20060;-69
2022/03/01 06:35:43;;;;;;;;;;;;;;;4.45;53.72;102674.66;5016074;28;20243;-68
2022/03/01 06:38:08;;;;;;;;;;;;;;;4.55;52.93;102677.88;5016078;28;19920;-68
2022/03/01 06:40:34;;;;;;;;;;;;;;;4.63;53.60;102679.28;5015807;28;19913;-68
2022/03/01 06:42:59;;;;;;;;;;;;;;;4.58;52.99;102684.19;5015958;28;19913;-68
2022/03/01 06:45:24;;;;;;;;;;;;;;;4.52;53.02;102686.41;5016259;28;19917;-68
2022/03/01 06:47:50;;;;;;;;;;;;;;;4.53;53.03;102694.38;5015714;28;19968;-68
2022/03/01 06:50:15;;;;;;;;;;;;;;;4.55;53.35;102701.44;5015776;28;19918;-68
2022/03/01 06:52:41;;;;;;;;;;;;;;;4.63;52.68;102702.84;5015890;28;19913;-68
2022/03/01 06:55:07;;;;;;;;;;;;;;;4.77;52.88;102696.75;5015434;28;19923;-69
2022/03/01 06:57:32;;;;;;;;;;;;;;;4.80;53.49;102699.59;5015480;28;19952;-68
2022/03/01 06:59:59;;;;;;;;;;;;;;;4.75;54.01;102709.78;5015801;28;19945;-68
2022/03/01 07:02:26;;;;;;;;;;;;;;;4.78;53.09;102711.66;5015446;28;19913;-68
2022/03/01 07:04:53;;;;;;;;;;;;;;;4.72;53.43;102714.81;5015836;28;19924;-68
2022/03/01 07:07:18;;;;;;;;;;;;;;;4.80;53.13;102723.16;5015531;28;20366;-68
2022/03/01 07:09:43;;;;;;;;;;;;;;;4.91;53.78;102716.88;5015726;28;20372;-68
2022/03/01 07:12:09;;;;;;;;;;;;;;;5.11;53.05;102712.00;5015260;28;19913;-68
2022/03/01 07:14:35;;;;;;;;;;;;;;;5.34;52.84;102709.09;5015399;28;19913;-68
2022/03/01 07:17:00;;;;;;;;;;;;;;;5.46;53.12;102714.19;5015252;28;20267;-68
2022/03/01 07:19:26;;;;;;;;;;;;;;;5.42;53.13;102714.81;5015131;28;19913;-68
2022/03/01 07:21:51;;;;;;;;;;;;;;;5.33;53.76;102720.38;5015272;28;19981;-68
2022/03/01 07:24:16;;;;;;;;;;;;;;;5.31;52.31;102711.53;5015138;28;19914;-68
2022/03/01 07:26:42;;;;;;;;;;;;;;;5.27;52.34;102709.53;5015126;28;19960;-68
2022/03/01 07:29:08;;;;;;;;;;;;;;;5.25;53.51;102712.03;5015051;28;19919;-67
2022/03/01 07:31:33;;;;;;;;;;;;;;;5.29;53.66;102715.75;5015096;28;19914;-67
2022/03/01 07:33:59;;;;;;;;;;;;;;;5.30;53.68;102717.56;5015096;28;20008;-67
2022/03/01 07:36:24;;;;;;;;;;;;;;;5.32;53.67;102720.31;5014075;28;19948;-67
2022/03/01 07:38:50;;;;;;;;;;;;;;;5.35;52.89;102721.38;5014809;28;19971;-67
2022/03/01 07:41:15;;;;;;;;;;;;;;;5.35;53.21;102725.72;5014753;28;19928;-67
2022/03/01 07:43:40;;;;;;;;;;;;;;;5.29;53.75;102726.25;5014672;28;20004;-67
2022/03/01 07:46:10;;;;;;;;;;;;;;;5.22;54.27;102740.69;5014829;28;19917;-67
2022/03/01 07:48:37;;;;;;;;;;;;;;;5.31;53.36;102739.44;5014575;28;19981;-67
2022/03/01 07:51:02;;;;;;;;;;;;;;;5.21;54.05;102730.09;5014747;28;19964;-67
2022/03/01 07:53:27;;;;;;;;;;;;;;;5.14;54.24;102735.75;5014768;28;19954;-67
2022/03/01 07:55:53;;;;;;;;;;;;;;;5.14;54.08;102733.13;4993405;28;20375;-67
2022/03/01 07:58:18;;;;;;;;;;;;;;;5.12;54.68;102727.81;4994875;28;20290;-68
2022/03/01 08:00:43;;;;;;;;;;;;;;;5.13;54.59;102727.00;4994827;28;19967;-68
2022/03/01 08:03:09;;;;;;;;;;;;;;;5.11;55.30;102731.25;4995157;28;19914;-68
2022/03/01 08:05:34;;;;;;;;;;;;;;;5.14;54.37;102728.84;4994946;28;19909;-68
2022/03/01 08:07:59;;;;;;;;;;;;;;;5.07;54.97;102736.19;4994776;28;19935;-68
2022/03/01 08:10:25;;;;;;;;;;;;;;;5.01;54.24;102727.16;4994974;28;19917;-67
2022/03/01 08:12:50;;;;;;;;;;;;;;;5.02;54.95;102739.44;4994681;28;19914;-67
2022/03/01 08:15:15;;;;;;;;;;;;;;;5.07;53.83;102725.72;4994716;28;19936;-68
2022/03/01 08:17:52;;;;;;;;;;;;;;;5.05;55.79;102735.19;4994582;28;19913;-68
2022/03/01 08:20:17;;;;;;;;;;;;;;;5.04;55.60;102723.81;4994647;28;19929;-68
2022/03/01 08:22:43;;;;;;;;;;;;;;;5.02;55.42;102728.06;4994536;28;19913;-68
2022/03/01 08:25:08;;;;;;;;;;;;;;;5.02;54.84;102731.56;4994594;28;19969;-68
2022/03/01 08:27:33;;;;;;;;;;;;;;;5.00;57.24;102733.16;4994534;28;20315;-68
2022/03/01 08:29:59;;;;;;;;;;;;;;;5.03;56.50;102736.00;4994231;28;20271;-67
2022/03/01 08:32:24;;;;;;;;;;;;;;;5.12;55.54;102738.28;4994420;28;19918;-68
2022/03/01 08:34:49;;;;;;;;;;;;;;;5.13;55.99;102726.09;4994383;28;19948;-68
2022/03/01 08:37:14;;;;;;;;;;;;;;;5.24;54.59;102741.69;4994379;28;19941;-67
2022/03/01 08:39:40;;;;;;;;;;;;;;;5.28;56.41;102740.16;4994271;28;20290;-68
2022/03/01 08:42:05;;;;;;;;;;;;;;;5.34;56.56;102747.50;4994339;28;19918;-68
2022/03/01 08:44:31;;;;;;;;;;;;;;;5.39;55.99;102740.81;4994098;28;20012;-68
2022/03/01 08:46:56;;;;;;;;;;;;;;;5.36;54.94;102743.28;4993988;28;19921;-68
2022/03/01 08:49:21;;;;;;;;;;;;;;;5.37;56.50;102739.84;4993969;28;19920;-68
2022/03/01 08:51:47;;;;;;;;;;;;;;;5.36;55.96;102748.53;4994013;28;19914;-67
2022/03/01 08:54:13;;;;;;;;;;;;;;;5.43;55.75;102754.22;4994074;28;19913;-67
2022/03/01 08:56:38;;;;;;;;;;;;;;;5.49;56.21;102762.47;5008858;28;19940;-67
2022/03/01 08:59:05;;;;;;;;;;;;;;;5.53;56.74;102759.25;5013349;28;20342;-68
2022/03/01 09:01:30;;;;;;;;;;;;;;;5.58;56.34;102766.50;5013524;28;19924;-68
2022/03/01 09:03:56;;;;;;;;;;;;;;;5.62;55.71;102768.50;5013488;28;19913;-68
2022/03/01 09:06:21;;;;;;;;;;;;;;;5.68;55.85;102771.47;5013443;28;19940;-68
2022/03/01 09:08:47;;;;;;;;;;;;;;;5.76;55.65;102773.75;5013381;28;19961;-68
2022/03/01 09:11:13;;;;;;;;;;;;;;;5.89;55.24;102774.50;5013349;28;20020;-68
2022/03/01 09:13:40;;;;;;;;;;;;;;;6.05;55.69;102779.91;5013381;28;19936;-67
2022/03/01 09:16:06;;;;;;;;;;;;;;;6.17;54.80;102785.91;5012610;28;20015;-68
2022/03/01 09:18:31;;;;;;;;;;;;;;;6.40;55.07;102765.34;5013253;28;20004;-68
2022/03/01 09:20:57;;;;;;;;;;;;;;;6.87;53.40;102773.31;5013158;28;20367;-68
2022/03/01 09:23:22;;;;;;;;;;;;;;;7.29;52.78;102763.41;5013092;28;19939;-68
2022/03/01 09:25:48;;;;;;;;;;;;;;;7.75;51.92;102766.78;5013207;28;20415;-68
2022/03/01 09:28:13;;;;;;;;;;;;;;;8.03;51.11;102760.31;5013156;28;19917;-69
2022/03/01 09:30:39;;;;;;;;;;;;;;;8.14;50.59;102769.69;5013046;28;19921;-68
2022/03/01 09:33:05;;;;;;;;;;;;;;;8.08;50.48;102766.72;5013049;28;19913;-69
2022/03/01 09:35:30;;;;;;;;;;;;;;;8.05;50.59;102774.50;5013214;28;19919;-68
2022/03/01 09:37:55;;;;;;;;;;;;;;;7.98;49.71;102764.44;5012863;28;20086;-68
2022/03/01 09:40:30;;;;;;;;;;;;;;;7.88;50.19;102768.34;5013051;28;19913;-68
2022/03/01 09:42:55;;;;;;;;;;;;;;;7.75;50.77;102764.16;5012980;28;20012;-68
2022/03/01 09:45:20;;;;;;;;;;;;;;;7.72;50.21;102766.63;5012898;28;19920;-68
2022/03/01 09:47:47;;;;;;;;;;;;;;;7.64;50.70;102756.50;5012921;28;19917;-69
2022/03/01 09:50:13;;;;;;;;;;;;;;;7.57;50.21;102763.16;5013120;28;19914;-68
2022/03/01 09:52:39;;;;;;;;;;;;;;;7.60;48.91;102770.31;5012988;28;19914;-69
2022/03/01 09:55:05;;;;;;;;;;;;;;;7.60;49.46;102772.94;5012561;28;19917;-69
2022/03/01 09:57:30;;;;;;;;;;;;;;;7.62;49.28;102769.56;5012823;28;19913;-68
2022/03/01 09:59:56;;;;;;;;;;;;;;;7.63;49.16;102765.22;5016025;28;20293;-69
2022/03/01 10:02:34;;;;;;;;;;;;;;;7.60;49.44;102776.47;5016812;28;19917;-68
2022/03/01 10:05:01;;;;;;;;;;;;;;;7.57;50.04;102771.03;5016707;28;19913;-68
2022/03/01 10:07:28;;;;;;;;;;;;;;;7.58;49.17;102774.56;5016634;28;19917;-68
2022/03/01 10:10:06;;;;;;;;;;;;;;;7.51;49.28;102781.25;5016370;28;19914;-68
2022/03/01 10:12:32;;;;;;;;;;;;;;;7.41;49.01;102782.47;5016388;28;20341;-69
2022/03/01 10:14:59;;;;;;;;;;;;;;;7.37;50.05;102774.34;5016562;28;20016;-68
2022/03/01 10:17:34;;;;;;;;;;;;;;;7.37;48.79;102791.03;5016432;28;19914;-69
2022/03/01 10:20:01;;;;;;;;;;;;;;;7.36;48.84;102780.41;5016291;28;20366;-69
2022/03/01 10:22:26;;;;;;;;;;;;;;;7.38;49.44;102782.31;5016223;28;19976;-69
2022/03/01 10:24:52;;;;;;;;;;;;;;;7.40;49.91;102782.38;4998659;28;20366;-68
2022/03/01 10:27:26;;;;;;;;;;;;;;;7.40;50.39;102770.13;5016181;28;20250;-69
2022/03/01 10:29:52;;;;;;;;;;;;;;;7.51;49.97;102776.88;5016236;28;19967;-68
2022/03/01 10:32:17;;;;;;;;;;;;;;;7.62;49.67;102774.81;5016121;28;19921;-68
2022/03/01 10:35:02;;;;;;;;;;;;;;;7.74;50.19;102769.31;5016229;28;19913;-68
2022/03/01 10:37:29;;;;;;;;;;;;;;;7.93;49.86;102772.13;5015846;28;20368;-68
2022/03/01 10:40:13;;;;;;;;;;;;;;;8.08;49.08;102761.47;5016390;28;19920;-68
2022/03/01 10:42:38;;;;;;;;;;;;;;;8.16;49.36;102762.75;5016172;28;20032;-69
2022/03/01 10:45:05;;;;;;;;;;;;;;;8.24;48.90;102760.53;5016987;28;19909;-69
2022/03/01 10:47:32;;;;;;;;;;;;;;;8.26;48.63;102759.78;5016001;28;19983;-68
2022/03/01 10:50:06;;;;;;;;;;;;;;;8.28;48.42;102755.50;5015989;28;19920;-68
2022/03/01 10:52:35;;;;;;;;;;;;;;;8.32;48.48;102760.94;5015721;28;20321;-69
2022/03/01 10:55:00;;;;;;;;;;;;;;;8.33;48.88;102758.34;5015736;28;19920;-68
2022/03/01 10:57:26;;;;;;;;;;;;;;;8.47;47.92;102766.97;5015674;28;20015;-69
2022/03/01 10:59:51;;;;;;;;;;;;;;;8.60;47.48;102773.75;5015054;28;20261;-69
2022/03/01 11:02:19;;;;;;;;;;;;;;;8.67;47.71;102775.88;5015474;28;19921;-68
2022/03/01 11:04:45;;;;;;;;;;;;;;;8.86;47.93;102783.84;5015481;28;19952;-68
2022/03/01 11:07:11;;;;;;;;;;;;;;;9.02;48.13;102773.22;5015487;28;19913;-69
2022/03/01 11:09:36;;;;;;;;;;;;;;;9.26;47.50;102768.22;5014564;28;20398;-69
2022/03/01 11:12:03;;;;;;;;;;;;;;;9.38;46.05;102767.91;5015088;28;19920;-69
2022/03/01 11:14:35;;;;;;;;;;;;;;;9.47;47.19;102765.69;5015371;28;19917;-69
2022/03/01 11:17:09;;;;;;;;;;;;;;;9.55;46.74;102763.41;5015407;28;19987;-69
2022/03/01 11:19:44;;;;;;;;;;;;;;;9.67;46.50;102769.22;5015194;28;19914;-68
2022/03/01 11:22:42;;;;;;;;;;;;;;;9.76;46.56;102764.38;4997651;28;20274;-69
2022/03/01 11:25:33;;;;;;;;;;;;;;;9.88;46.56;102768.38;4954670;29;20260;-69
2022/03/01 11:28:00;;;;;;;;;;;;;;;10.03;45.75;102774.34;4953541;28;19989;-69
2022/03/01 11:30:51;;;;;;;;;;;;;;;10.12;45.81;102758.88;4954368;28;19918;-69
2022/03/01 11:33:26;;;;;;;;;;;;;;;10.18;44.83;102768.81;4937809;29;19918;-69
2022/03/01 11:35:55;;;;;;;;;;;;;;;10.15;45.43;102768.66;4956197;28;19914;-69
2022/03/01 11:38:24;;;;;;;;;;;;;;;10.23;45.44;102773.44;4956732;29;19921;-71
2022/03/01 11:40:55;;;;;;;;;;;;;;;10.35;44.73;102759.91;4954975;29;20348;-69
2022/03/01 11:43:26;;;;;;;;;;;;;;;10.47;45.58;102763.06;4954457;29;19946;-69
2022/03/01 11:45:52;;;;;;;;;;;;;;;10.57;44.75;102761.69;4954517;29;20324;-69
2022/03/01 11:48:23;;;;;;;;;;;;;;;10.64;45.36;102753.19;4954209;29;19914;-68
2022/03/01 11:50:50;;;;;;;;;;;;;;;10.66;42.82;102747.94;4954303;28;19937;-69
2022/03/01 11:53:16;;;;;;;;;;;;;;;10.68;45.13;102741.91;4954222;28;19921;-69
2022/03/01 11:55:45;;;;;;;;;;;;;;;10.76;45.51;102742.22;4954016;29;20361;-69
2022/03/01 11:58:11;;;;;;;;;;;;;;;10.80;45.51;102727.38;4954175;28;19937;-68
2022/03/01 12:00:39;;;;;;;;;;;;;;;10.79;44.43;102729.09;4981942;28;19917;-69
2022/03/01 12:03:16;;;;;;;;;;;;;;;10.77;43.49;102731.69;5014400;28;19910;-69
2022/03/01 12:05:45;;;;;;;;;;;;;;;10.75;43.65;102720.16;5014643;28;19920;-69
2022/03/01 12:08:12;;;;;;;;;;;;;;;10.72;43.79;102711.19;5014269;28;19910;-69
2022/03/01 12:11:00;;;;;;;;;;;;;;;10.69;45.04;102719.00;5014364;28;19913;-69
2022/03/01 12:13:39;;;;;;;;;;;;;;;10.63;44.04;102711.72;4996802;28;20355;-69
2022/03/01 12:16:05;;;;;;;;;;;;;;;10.50;44.08;102699.75;5014473;28;19975;-69
2022/03/01 12:18:32;;;;;;;;;;;;;;;10.45;44.75;102692.50;5014179;28;19914;-70
2022/03/01 12:21:05;;;;;;;;;;;;;;;10.42;44.36;102689.72;5013744;28;20001;-69
2022/03/01 12:23:32;;;;;;;;;;;;;;;10.40;45.21;102684.34;5014197;28;19919;-69
2022/03/01 12:26:02;;;;;;;;;;;;;;;10.46;44.25;102692.53;5014245;28;19909;-69
2022/03/01 12:28:32;;;;;;;;;;;;;;;10.50;45.41;102689.19;5014118;28;19941;-69
2022/03/01 12:31:08;;;;;;;;;;;;;;;10.58;44.34;102689.50;5014144;28;20323;-69
2022/03/01 12:33:33;;;;;;;;;;;;;;;10.58;44.10;102686.88;5013835;28;19917;-69
2022/03/01 12:36:03;;;;;;;;;;;;;;;10.56;43.58;102682.34;5014116;28;20253;-69
2022/03/01 12:38:30;;;;;;;;;;;;;;;10.58;44.13;102678.00;5014090;28;20024;-69
2022/03/01 12:41:06;;;;;;;;;;;;;;;10.66;43.91;102674.84;5013838;28;20012;-69
2022/03/01 12:43:31;;;;;;;;;;;;;;;10.70;43.64;102673.22;5014016;28;19967;-68
2022/03/01 12:45:56;;;;;;;;;;;;;;;10.74;43.64;102681.31;5013688;28;19914;-69